createdAt,value
2022-12-24T00:00:59.100Z,25.02
2022-12-24T00:03:25.830Z,17.30
2022-12-24T00:05:52.474Z,21.77
2022-12-24T00:08:19.176Z,26.35
2022-12-24T00:10:49.996Z,23.10
2022-12-24T00:13:16.731Z,22.50
2022-12-24T00:15:43.256Z,19.40
2022-12-24T00:18:09.740Z,24.83
2022-12-24T00:20:36.330Z,18.55
2022-12-24T00:23:02.814Z,22.40
2022-12-24T00:25:29.345Z,20.48
2022-12-24T00:27:55.803Z,18.67
2022-12-24T00:30:22.235Z,25.08
2022-12-24T00:32:48.682Z,26.20
2022-12-24T00:35:15.264Z,19.20
2022-12-24T00:37:41.771Z,16.73
2022-12-24T00:40:08.866Z,30.42
2022-12-24T00:42:35.388Z,26.60
2022-12-24T00:45:01.923Z,22.38
2022-12-24T00:47:28.412Z,23.65
2022-12-24T00:49:55.284Z,25.67
2022-12-24T00:52:21.792Z,22.17
2022-12-24T00:54:48.254Z,26.02
2022-12-24T00:57:14.738Z,21.98
2022-12-24T00:59:41.300Z,24.10
2022-12-24T01:02:07.936Z,21.88
2022-12-24T01:04:53.176Z,23.85
2022-12-24T01:07:19.829Z,18.45
2022-12-24T01:09:46.257Z,24.02
2022-12-24T01:12:12.789Z,24.35
2022-12-24T01:14:39.345Z,18.80
2022-12-24T01:17:05.906Z,21.60
2022-12-24T01:19:32.430Z,22.65
2022-12-24T01:21:59.025Z,27.23
2022-12-24T01:24:25.688Z,20.90
2022-12-24T01:26:52.128Z,19.13
2022-12-24T01:29:18.714Z,27.67
2022-12-24T01:31:45.364Z,23.33
2022-12-24T01:34:11.957Z,14.63
2022-12-24T01:36:38.564Z,14.82
2022-12-24T01:39:05.188Z,13.05
2022-12-24T01:41:51.258Z,22.73
2022-12-24T01:44:35.281Z,26.52
2022-12-24T01:47:12.966Z,31.73
2022-12-24T01:49:44.334Z,25.88
2022-12-24T01:52:14.891Z,23.00
2022-12-24T01:54:47.518Z,23.88
2022-12-24T01:57:19.709Z,30.02
2022-12-24T01:59:51.003Z,21.25
2022-12-24T02:02:19.156Z,13.27
2022-12-24T02:04:58.310Z,30.25
2022-12-24T02:07:25.116Z,21.25
2022-12-24T02:09:56.254Z,29.33
2022-12-24T02:12:23.697Z,20.50
2022-12-24T02:14:50.516Z,17.67
2022-12-24T02:17:20.024Z,27.75
2022-12-24T02:20:21.261Z,29.58
2022-12-24T02:23:34.420Z,24.98
2022-12-24T02:26:30.904Z,21.67
2022-12-24T02:29:21.986Z,31.85
2022-12-24T02:32:00.301Z,27.77
2022-12-24T02:34:40.675Z,30.92
2022-12-24T02:37:32.109Z,25.90
2022-12-24T02:40:21.578Z,32.10
2022-12-24T02:42:53.539Z,26.48
2022-12-24T02:45:28.215Z,28.30
2022-12-24T02:47:56.134Z,34.13
2022-12-24T02:50:23.871Z,21.98
2022-12-24T02:52:51.131Z,20.67
2022-12-24T02:55:44.002Z,28.10
2022-12-24T03:01:17.690Z,22.30
2022-12-24T03:04:05.491Z,28.27
2022-12-24T03:06:57.902Z,25.17
2022-12-24T03:09:37.548Z,18.92
2022-12-24T03:12:12.976Z,29.85
2022-12-24T03:14:41.399Z,36.53
2022-12-24T03:17:10.395Z,23.30
2022-12-24T03:19:37.689Z,24.63
2022-12-24T03:22:09.783Z,31.15
2022-12-24T03:24:36.451Z,32.78
2022-12-24T03:27:06.245Z,31.65
2022-12-24T03:29:33.367Z,24.95
2022-12-24T03:32:02.520Z,17.08
2022-12-24T03:34:30.043Z,26.50
2022-12-24T03:36:56.812Z,22.13
2022-12-24T03:39:25.008Z,28.42
2022-12-24T03:41:51.575Z,24.85
2022-12-24T03:44:18.070Z,23.48
2022-12-24T03:46:44.564Z,20.60
2022-12-24T03:49:11.054Z,27.98
2022-12-24T03:51:37.527Z,19.27
2022-12-24T03:54:04.178Z,21.45
2022-12-24T03:56:30.656Z,24.05
2022-12-24T03:58:57.134Z,16.15
2022-12-24T04:01:23.733Z,19.10
2022-12-24T04:03:50.341Z,16.70
2022-12-24T04:06:17.958Z,19.92
2022-12-24T04:08:44.604Z,20.85
2022-12-24T04:11:13.954Z,24.55
2022-12-24T04:13:40.512Z,17.85
2022-12-24T04:16:12.960Z,20.05
2022-12-24T04:18:42.081Z,25.10
2022-12-24T04:21:09.381Z,24.25
2022-12-24T04:23:37.795Z,24.00
2022-12-24T04:26:06.790Z,23.90
2022-12-24T04:28:34.011Z,23.42
2022-12-24T04:31:05.626Z,19.50
2022-12-24T04:33:32.430Z,18.70
2022-12-24T04:36:00.462Z,22.13
2022-12-24T04:38:27.517Z,23.80
2022-12-24T04:41:07.520Z,24.88
2022-12-24T04:43:34.182Z,18.38
2022-12-24T04:46:09.939Z,21.80
2022-12-24T04:48:37.824Z,19.75
2022-12-24T04:51:05.767Z,15.18
2022-12-24T04:53:33.426Z,16.77
2022-12-24T04:56:00.429Z,18.95
2022-12-24T04:58:27.737Z,17.63
2022-12-24T05:00:54.693Z,16.83
2022-12-24T05:03:21.632Z,22.92
2022-12-24T05:05:48.457Z,16.73
2022-12-24T05:08:14.958Z,20.55
2022-12-24T05:10:41.423Z,19.70
2022-12-24T05:13:07.931Z,24.85
2022-12-24T05:15:34.368Z,22.45
2022-12-24T05:18:00.960Z,28.00
2022-12-24T05:20:27.429Z,24.75
2022-12-24T05:23:12.884Z,24.52
2022-12-24T05:25:58.047Z,25.13
2022-12-24T05:28:25.209Z,13.30
2022-12-24T05:30:51.826Z,26.75
2022-12-24T05:33:18.409Z,22.35
2022-12-24T05:35:44.871Z,24.63
2022-12-24T05:38:11.337Z,22.52
2022-12-24T05:40:37.822Z,22.05
2022-12-24T05:43:04.431Z,26.13
2022-12-24T05:45:31.025Z,22.98
2022-12-24T05:47:59.822Z,21.67
2022-12-24T05:50:29.077Z,23.02
2022-12-24T05:52:55.612Z,22.50
2022-12-24T05:55:22.139Z,21.52
2022-12-24T05:57:48.740Z,22.13
2022-12-24T06:00:15.617Z,23.50
2022-12-24T06:02:42.245Z,21.20
2022-12-24T06:05:12.253Z,26.42
2022-12-24T06:07:38.834Z,26.95
2022-12-24T06:10:06.623Z,31.90
2022-12-24T06:12:33.156Z,19.77
2022-12-24T06:14:59.961Z,21.20
2022-12-24T06:17:26.724Z,26.75
2022-12-24T06:19:53.409Z,23.77
2022-12-24T06:22:20.030Z,19.67
2022-12-24T06:24:46.464Z,27.70
2022-12-24T06:27:12.990Z,26.75
2022-12-24T06:29:39.646Z,23.75
2022-12-24T06:32:06.290Z,30.45
2022-12-24T06:34:32.861Z,22.42
2022-12-24T06:36:59.372Z,22.67
2022-12-24T06:39:25.935Z,23.33
2022-12-24T06:41:52.648Z,23.05
2022-12-24T06:44:19.223Z,16.08
2022-12-24T06:46:45.840Z,17.13
2022-12-24T06:49:12.533Z,36.08
2022-12-24T06:51:39.195Z,16.10
2022-12-24T06:54:05.926Z,23.77
2022-12-24T06:56:32.504Z,25.05
2022-12-24T06:59:05.055Z,31.50
2022-12-24T07:01:32.097Z,23.60
2022-12-24T07:03:58.811Z,26.63
2022-12-24T07:06:28.244Z,29.02
2022-12-24T07:08:55.162Z,22.27
2022-12-24T07:11:23.705Z,23.63
2022-12-24T07:13:50.439Z,18.55
2022-12-24T07:16:17.720Z,25.48
2022-12-24T07:18:44.670Z,24.65
2022-12-24T07:21:11.210Z,33.13
2022-12-24T07:23:37.847Z,18.40
2022-12-24T07:26:06.277Z,17.00
2022-12-24T07:28:33.244Z,23.92
2022-12-24T07:31:00.539Z,18.10
2022-12-24T07:33:27.736Z,30.25
2022-12-24T07:36:03.124Z,20.80
2022-12-24T07:38:34.092Z,29.38
2022-12-24T07:41:01.078Z,18.85
2022-12-24T07:43:33.829Z,24.42
2022-12-24T07:46:00.488Z,21.52
2022-12-24T07:48:28.968Z,22.88
2022-12-24T07:50:57.217Z,13.68
2022-12-24T07:53:25.039Z,29.23
2022-12-24T07:55:52.005Z,22.10
2022-12-24T07:58:19.095Z,15.80
2022-12-24T08:00:46.075Z,15.38
2022-12-24T08:03:22.377Z,33.08
2022-12-24T08:05:49.511Z,22.85
2022-12-24T08:08:15.984Z,27.75
2022-12-24T08:10:44.825Z,20.85
2022-12-24T08:13:12.107Z,19.63
2022-12-24T08:15:38.945Z,24.95
2022-12-24T08:18:05.521Z,20.33
2022-12-24T08:20:32.254Z,25.02
2022-12-24T08:22:58.757Z,25.65
2022-12-24T08:25:25.320Z,26.25
2022-12-24T08:27:51.850Z,13.40
2022-12-24T08:30:21.197Z,26.92
2022-12-24T08:32:47.933Z,23.55
2022-12-24T08:35:14.519Z,17.50
2022-12-24T08:37:41.039Z,22.83
2022-12-24T08:40:08.298Z,19.05
2022-12-24T08:42:34.835Z,23.75
2022-12-24T08:45:01.421Z,28.50
2022-12-24T08:47:28.138Z,23.52
2022-12-24T08:49:54.768Z,25.63
2022-12-24T08:52:21.324Z,21.67
2022-12-24T08:54:47.939Z,26.65
2022-12-24T08:57:14.751Z,22.27
2022-12-24T08:59:41.332Z,37.55
2022-12-24T09:02:09.484Z,34.25
2022-12-24T09:04:42.154Z,25.25
2022-12-24T09:07:09.624Z,23.60
2022-12-24T09:09:38.208Z,29.10
2022-12-24T09:12:08.645Z,21.58
2022-12-24T09:14:35.283Z,23.88
2022-12-24T09:17:01.903Z,25.35
2022-12-24T09:19:29.129Z,22.45
2022-12-24T09:21:55.850Z,23.13
2022-12-24T09:24:22.575Z,19.98
2022-12-24T09:26:55.504Z,20.83
2022-12-24T09:29:23.916Z,23.45
2022-12-24T09:31:50.824Z,24.65
2022-12-24T09:34:17.441Z,22.10
2022-12-24T09:36:43.960Z,26.73
2022-12-24T09:39:10.501Z,27.80
2022-12-24T09:41:59.250Z,25.58
2022-12-24T09:44:48.765Z,31.67
2022-12-24T09:47:32.527Z,22.75
2022-12-24T09:50:03.098Z,32.63
2022-12-24T09:52:37.664Z,18.13
2022-12-24T09:55:25.491Z,17.55
2022-12-24T09:57:54.683Z,25.63
2022-12-24T10:00:25.849Z,17.70
2022-12-24T10:02:53.252Z,28.77
2022-12-24T10:05:33.366Z,26.67
2022-12-24T10:08:19.368Z,27.63
2022-12-24T10:10:54.516Z,32.67
2022-12-24T10:13:43.637Z,18.58
2022-12-24T10:16:25.576Z,32.53
2022-12-24T10:19:11.216Z,23.17
2022-12-24T10:21:50.412Z,17.10
2022-12-24T10:24:28.328Z,17.90
2022-12-24T10:27:01.049Z,19.27
2022-12-24T10:29:40.639Z,26.00
2022-12-24T10:32:21.165Z,19.77
2022-12-24T10:37:28.677Z,22.27
2022-12-24T10:39:57.215Z,27.10
2022-12-24T10:42:38.236Z,17.65
2022-12-24T10:45:07.918Z,22.45
2022-12-24T10:47:38.171Z,18.63
2022-12-24T10:50:15.537Z,28.33
2022-12-24T10:52:45.366Z,19.27
2022-12-24T10:55:24.195Z,17.60
2022-12-24T10:58:19.376Z,19.48
2022-12-24T11:00:53.360Z,28.13
2022-12-24T11:03:32.583Z,22.90
2022-12-24T11:06:06.697Z,19.70
2022-12-24T11:08:34.708Z,17.63
2022-12-24T11:11:07.794Z,19.63
2022-12-24T11:13:38.529Z,17.00
2022-12-24T11:16:20.555Z,16.80
2022-12-24T11:18:53.061Z,25.17
2022-12-24T11:21:27.139Z,20.23
2022-12-24T11:23:57.509Z,18.50
2022-12-24T11:26:26.921Z,18.15
2022-12-24T11:29:12.094Z,29.63
2022-12-24T11:31:38.970Z,21.65
2022-12-24T11:34:26.373Z,20.63
2022-12-24T11:36:54.978Z,20.98
2022-12-24T11:39:25.708Z,21.95
2022-12-24T11:41:54.203Z,15.95
2022-12-24T11:44:26.658Z,21.63
2022-12-24T11:46:57.181Z,17.42
2022-12-24T11:49:28.343Z,21.75
2022-12-24T11:52:10.174Z,18.30
2022-12-24T11:54:50.783Z,18.15
2022-12-24T11:57:20.526Z,22.10
2022-12-24T11:59:49.878Z,10.48
2022-12-24T12:02:23.626Z,14.90
2022-12-24T12:04:55.571Z,10.73
2022-12-24T12:07:26.621Z,13.18
2022-12-24T12:10:02.942Z,16.70
2022-12-24T12:12:34.761Z,17.02
2022-12-24T12:15:06.398Z,17.30
2022-12-24T12:17:39.295Z,16.77
2022-12-24T12:20:18.141Z,16.92
2022-12-24T12:23:03.839Z,14.50
2022-12-24T12:25:45.735Z,13.60
2022-12-24T12:28:21.589Z,17.42
2022-12-24T12:31:03.043Z,13.73
2022-12-24T12:33:43.066Z,15.75
2022-12-24T12:36:12.723Z,12.65
2022-12-24T12:38:40.626Z,20.38
2022-12-24T12:41:27.036Z,12.82
2022-12-24T12:44:35.557Z,14.80
2022-12-24T12:47:17.651Z,20.48
2022-12-24T12:49:59.305Z,14.25
2022-12-24T12:52:28.822Z,9.68
2022-12-24T12:55:24.282Z,14.07
2022-12-24T12:57:58.672Z,18.92
2022-12-24T13:00:26.447Z,19.67
2022-12-24T13:03:15.065Z,14.95
2022-12-24T13:06:03.480Z,16.38
2022-12-24T13:08:35.917Z,19.38
2022-12-24T13:11:09.826Z,19.73
2022-12-24T13:13:55.007Z,15.60
2022-12-24T13:16:50.730Z,11.65
2022-12-24T13:19:26.095Z,20.63
2022-12-24T13:21:55.500Z,17.98
2022-12-24T13:24:26.068Z,17.08
2022-12-24T13:27:27.526Z,15.07
2022-12-24T13:30:39.583Z,21.38
2022-12-24T13:33:11.309Z,13.60
2022-12-24T13:35:57.684Z,17.25
2022-12-24T13:38:33.232Z,16.83
2022-12-24T13:41:40.626Z,15.32
2022-12-24T13:44:12.698Z,16.90
2022-12-24T13:47:03.429Z,13.45
2022-12-24T13:49:49.979Z,12.95
2022-12-24T13:52:21.384Z,13.95
2022-12-24T13:54:57.131Z,21.83
2022-12-24T13:57:32.998Z,24.48
2022-12-24T14:00:31.155Z,18.95
2022-12-24T14:03:07.521Z,16.30
2022-12-24T14:05:46.341Z,12.95
2022-12-24T14:08:42.000Z,15.48
2022-12-24T14:11:16.740Z,20.85
2022-12-24T14:13:46.329Z,15.85
2022-12-24T14:16:18.246Z,16.77
2022-12-24T14:18:50.507Z,16.48
2022-12-24T14:21:23.446Z,19.15
2022-12-24T14:23:58.536Z,13.95
2022-12-24T14:26:30.835Z,19.45
2022-12-24T14:29:06.733Z,15.52
2022-12-24T14:31:33.775Z,22.65
2022-12-24T14:34:09.484Z,18.77
2022-12-24T14:36:37.395Z,17.98
2022-12-24T14:39:08.236Z,10.77
2022-12-24T14:41:51.578Z,19.17
2022-12-24T14:44:35.409Z,20.02
2022-12-24T14:47:40.484Z,15.85
2022-12-24T14:50:45.228Z,13.32
2022-12-24T14:54:06.032Z,13.45
2022-12-24T14:56:32.906Z,20.63
2022-12-24T14:59:04.549Z,17.23
2022-12-24T15:01:34.306Z,18.13
2022-12-24T15:04:09.952Z,15.05
2022-12-24T15:06:39.952Z,16.52
2022-12-24T15:09:17.515Z,18.58
2022-12-24T15:11:45.870Z,15.25
2022-12-24T15:16:40.602Z,15.93
2022-12-24T15:19:23.085Z,18.63
2022-12-24T15:21:52.665Z,16.45
2022-12-24T15:24:34.781Z,16.40
2022-12-24T15:27:26.567Z,12.10
2022-12-24T15:29:58.170Z,16.98
2022-12-24T15:32:24.973Z,25.92
2022-12-24T15:34:54.323Z,8.70
2022-12-24T15:37:31.429Z,11.80
2022-12-24T15:40:07.502Z,14.77
2022-12-24T15:42:34.343Z,17.58
2022-12-24T15:45:11.407Z,11.07
2022-12-24T15:47:51.672Z,10.43
2022-12-24T15:50:43.712Z,9.73
2022-12-24T15:53:21.062Z,11.43
2022-12-24T15:56:09.635Z,17.73
2022-12-24T15:58:39.610Z,12.98
2022-12-24T16:01:09.376Z,11.70
2022-12-24T16:03:39.176Z,16.70
2022-12-24T16:06:12.002Z,17.98
2022-12-24T16:08:40.099Z,20.05
2022-12-24T16:11:28.478Z,17.00
2022-12-24T16:13:54.928Z,19.02
2022-12-24T16:16:32.955Z,17.50
2022-12-24T16:19:01.079Z,14.20
2022-12-24T16:21:42.205Z,19.10
2022-12-24T16:24:24.111Z,16.73
2022-12-24T16:26:51.066Z,14.38
2022-12-24T16:29:21.289Z,18.02
2022-12-24T16:31:55.778Z,17.40
2022-12-24T16:34:28.167Z,20.13
2022-12-24T16:36:55.409Z,20.92
2022-12-24T16:39:30.733Z,21.25
2022-12-24T16:42:18.813Z,16.95
2022-12-24T16:44:45.589Z,29.33
2022-12-24T16:47:19.612Z,27.02
2022-12-24T16:49:46.176Z,10.07
2022-12-24T16:52:18.204Z,17.75
2022-12-24T16:54:44.734Z,24.80
2022-12-24T16:57:11.326Z,17.23
2022-12-24T16:59:38.396Z,15.65
2022-12-24T17:02:12.571Z,15.60
2022-12-24T17:04:41.258Z,13.15
2022-12-24T17:07:08.318Z,20.27
2022-12-24T17:09:34.777Z,15.80
2022-12-24T17:12:01.287Z,18.73
2022-12-24T17:14:28.290Z,14.45
2022-12-24T17:16:54.847Z,14.23
2022-12-24T17:19:21.537Z,11.82
2022-12-24T17:21:48.042Z,14.13
2022-12-24T17:24:14.623Z,12.90
2022-12-24T17:26:43.347Z,12.48
2022-12-24T17:29:10.604Z,17.58
2022-12-24T17:31:42.783Z,23.55
2022-12-24T17:34:09.520Z,27.63
2022-12-24T17:36:36.091Z,22.65
2022-12-24T17:39:02.745Z,16.85
2022-12-24T17:41:32.415Z,19.40
2022-12-24T17:44:01.285Z,22.90
2022-12-24T17:46:27.743Z,27.27
2022-12-24T17:48:55.186Z,21.85
2022-12-24T17:51:23.590Z,23.27
2022-12-24T17:53:50.395Z,27.02
2022-12-24T17:56:17.765Z,19.90
2022-12-24T17:58:46.279Z,25.15
2022-12-24T18:01:16.014Z,31.23
2022-12-24T18:03:43.027Z,33.83
2022-12-24T18:06:11.489Z,24.67
2022-12-24T18:11:17.261Z,23.27
2022-12-24T18:13:44.713Z,21.13
2022-12-24T18:16:20.156Z,26.25
2022-12-24T18:18:47.744Z,18.58
2022-12-24T18:21:15.606Z,20.88
2022-12-24T18:23:43.508Z,26.70
2022-12-24T18:26:10.665Z,15.98
2022-12-24T18:28:37.317Z,23.20
2022-12-24T18:31:10.787Z,23.02
2022-12-24T18:33:37.758Z,22.20
2022-12-24T18:36:04.912Z,26.50
2022-12-24T18:38:32.786Z,22.70
2022-12-24T18:41:20.534Z,32.70
2022-12-24T18:43:47.046Z,34.33
2022-12-24T18:46:16.384Z,21.00
2022-12-24T18:48:43.085Z,24.55
2022-12-24T18:51:10.624Z,27.33
2022-12-24T18:53:37.818Z,40.67
2022-12-24T18:56:11.089Z,29.42
2022-12-24T18:58:42.239Z,35.20
2022-12-24T19:01:18.479Z,27.25
2022-12-24T19:03:45.205Z,34.80
2022-12-24T19:06:11.762Z,41.67
2022-12-24T19:11:25.881Z,25.83
2022-12-24T19:13:55.253Z,24.42
2022-12-24T19:16:22.259Z,35.80
2022-12-24T19:18:49.268Z,32.08
2022-12-24T19:21:18.045Z,37.88
2022-12-24T19:23:45.822Z,28.95
2022-12-24T19:26:13.593Z,31.23
2022-12-24T19:28:40.496Z,26.40
2022-12-24T19:31:13.331Z,30.45
2022-12-24T19:33:46.003Z,39.28
2022-12-24T19:36:16.357Z,34.67
2022-12-24T19:38:43.279Z,41.90
2022-12-24T19:41:13.265Z,37.78
2022-12-24T19:43:41.928Z,27.25
2022-12-24T19:46:15.295Z,34.95
2022-12-24T19:48:42.781Z,35.03
2022-12-24T19:51:12.123Z,33.40
2022-12-24T19:53:39.561Z,32.55
2022-12-24T19:56:07.034Z,25.27
2022-12-24T19:58:39.433Z,31.85
2022-12-24T20:01:12.939Z,30.88
2022-12-24T20:03:41.326Z,33.53
2022-12-24T20:06:13.673Z,42.08
2022-12-24T20:08:41.068Z,32.72
2022-12-24T20:11:10.856Z,37.55
2022-12-24T20:13:38.753Z,29.95
2022-12-24T20:16:17.146Z,33.90
2022-12-24T20:18:44.079Z,23.95
2022-12-24T20:21:12.467Z,31.23
2022-12-24T20:26:09.448Z,25.67
2022-12-24T20:28:37.272Z,33.92
2022-12-24T20:31:15.864Z,25.48
2022-12-24T20:33:43.841Z,36.22
2022-12-24T20:36:11.489Z,32.33
2022-12-24T20:38:39.293Z,36.05
2022-12-24T20:41:07.175Z,43.45
2022-12-24T20:43:37.235Z,32.72
2022-12-24T20:46:09.111Z,40.00
2022-12-24T20:48:39.170Z,34.63
2022-12-24T20:51:08.996Z,39.90
2022-12-24T20:53:37.580Z,42.75
2022-12-24T20:56:04.343Z,40.42
2022-12-24T20:58:31.244Z,39.80
2022-12-24T21:01:00.115Z,34.90
2022-12-24T21:03:27.420Z,29.30
2022-12-24T21:05:54.227Z,37.70
2022-12-24T21:08:20.897Z,36.05
2022-12-24T21:11:10.074Z,45.67
2022-12-24T21:13:37.425Z,51.55
2022-12-24T21:16:04.373Z,60.25
2022-12-24T21:18:32.341Z,50.05
2022-12-24T21:20:59.168Z,59.42
2022-12-24T21:23:25.764Z,42.67
2022-12-24T21:26:04.536Z,41.88
2022-12-24T21:28:31.987Z,39.00
2022-12-24T21:30:58.760Z,40.25
2022-12-24T21:33:26.002Z,38.33
2022-12-24T21:35:59.453Z,27.65
2022-12-24T21:38:28.152Z,35.42
2022-12-24T21:41:03.460Z,39.58
2022-12-24T21:43:30.736Z,42.20
2022-12-24T21:45:57.952Z,38.88
2022-12-24T21:48:44.112Z,34.92
2022-12-24T21:51:10.956Z,28.65
2022-12-24T21:53:56.609Z,23.77
2022-12-24T21:56:23.682Z,31.75
2022-12-24T21:58:51.354Z,29.23
2022-12-24T22:01:19.179Z,34.17
2022-12-24T22:03:49.621Z,33.92
2022-12-24T22:06:34.943Z,40.30
2022-12-24T22:09:20.388Z,38.67
2022-12-24T22:11:54.359Z,38.05
2022-12-24T22:14:21.610Z,34.53
2022-12-24T22:16:48.315Z,39.05
2022-12-24T22:19:14.904Z,39.60
2022-12-24T22:21:41.343Z,36.85
2022-12-24T22:24:08.425Z,27.83
2022-12-24T22:26:34.900Z,37.00
2022-12-24T22:29:06.397Z,37.97
2022-12-24T22:31:33.116Z,37.60
2022-12-24T22:33:59.724Z,30.05
2022-12-24T22:36:26.471Z,31.25
2022-12-24T22:38:52.961Z,40.40
2022-12-24T22:41:19.468Z,35.55
2022-12-24T22:43:49.740Z,33.53
2022-12-24T22:46:16.847Z,31.67
2022-12-24T22:48:44.798Z,30.75
2022-12-24T22:51:14.866Z,32.05
2022-12-24T22:53:41.395Z,33.50
2022-12-24T22:56:12.008Z,30.58
2022-12-24T22:58:38.467Z,32.55
2022-12-24T23:01:05.055Z,38.88
2022-12-24T23:03:31.792Z,31.00
2022-12-24T23:06:06.931Z,30.98
2022-12-24T23:08:36.209Z,31.45
2022-12-24T23:11:10.427Z,30.75
2022-12-24T23:13:57.987Z,36.05
2022-12-24T23:16:26.941Z,33.30
2022-12-24T23:18:54.323Z,42.15
2022-12-24T23:21:21.050Z,33.20
2022-12-24T23:23:47.567Z,31.70
2022-12-24T23:26:16.853Z,31.95
2022-12-24T23:28:43.980Z,39.58
2022-12-24T23:31:11.691Z,42.45
2022-12-24T23:33:38.646Z,35.60
2022-12-24T23:36:06.001Z,39.78
2022-12-24T23:38:32.619Z,38.22
2022-12-24T23:41:01.144Z,34.85
2022-12-24T23:43:28.122Z,34.83
2022-12-24T23:45:55.300Z,31.13
2022-12-24T23:48:23.636Z,27.73
2022-12-24T23:53:18.776Z,25.90
2022-12-24T23:55:45.784Z,25.60
2022-12-24T23:58:15.041Z,35.22
